sensor_id;sensor_type;location;lat;lon;timestamp;pressure;altitude;pressure_sealevel;temperature;humidity
42519;BME280;28147;47.520;18.920;2023-06-14T00:00:37;98174.56;;;19.79;44.28
42519;BME280;28147;47.520;18.920;2023-06-14T00:03:09;98176.97;;;19.94;43.98
42519;BME280;28147;47.520;18.920;2023-06-14T00:05:37;98173.66;;;19.97;44.25
42519;BME280;28147;47.520;18.920;2023-06-14T00:08:06;98171.25;;;19.82;44.22
42519;BME280;28147;47.520;18.920;2023-06-14T00:10:35;98170.03;;;19.88;44.15
42519;BME280;28147;47.520;18.920;2023-06-14T00:13:04;98168.06;;;19.93;44.53
42519;BME280;28147;47.520;18.920;2023-06-14T00:15:30;98162.59;;;19.52;45.38
42519;BME280;28147;47.520;18.920;2023-06-14T00:17:57;98166.38;;;19.51;45.74
42519;BME280;28147;47.520;18.920;2023-06-14T00:20:26;98175.34;;;19.47;45.90
42519;BME280;28147;47.520;18.920;2023-06-14T00:22:53;98164.34;;;19.43;45.99
42519;BME280;28147;47.520;18.920;2023-06-14T00:25:19;98171.16;;;19.54;46.29
42519;BME280;28147;47.520;18.920;2023-06-14T00:27:44;98163.13;;;19.35;46.56
42519;BME280;28147;47.520;18.920;2023-06-14T00:30:11;98178.06;;;19.47;46.40
42519;BME280;28147;47.520;18.920;2023-06-14T00:32:36;98172.88;;;19.50;46.56
42519;BME280;28147;47.520;18.920;2023-06-14T00:35:02;98179.53;;;19.72;45.90
42519;BME280;28147;47.520;18.920;2023-06-14T00:37:27;98180.28;;;19.58;46.36
42519;BME280;28147;47.520;18.920;2023-06-14T00:39:52;98188.38;;;19.58;46.39
42519;BME280;28147;47.520;18.920;2023-06-14T00:42:28;98178.56;;;19.49;46.46
42519;BME280;28147;47.520;18.920;2023-06-14T00:44:53;98188.47;;;19.53;46.65
42519;BME280;28147;47.520;18.920;2023-06-14T00:47:19;98190.06;;;19.54;46.77
42519;BME280;28147;47.520;18.920;2023-06-14T00:49:46;98186.78;;;19.57;46.88
42519;BME280;28147;47.520;18.920;2023-06-14T00:52:13;98188.75;;;19.38;47.41
42519;BME280;28147;47.520;18.920;2023-06-14T00:54:40;98192.25;;;19.71;47.08
42519;BME280;28147;47.520;18.920;2023-06-14T00:57:06;98192.78;;;19.54;47.40
42519;BME280;28147;47.520;18.920;2023-06-14T00:59:33;98190.84;;;19.41;47.71
42519;BME280;28147;47.520;18.920;2023-06-14T01:01:58;98185.56;;;19.36;47.81
42519;BME280;28147;47.520;18.920;2023-06-14T01:04:24;98191.19;;;19.20;48.32
42519;BME280;28147;47.520;18.920;2023-06-14T01:12:02;98187.44;;;19.03;49.42
42519;BME280;28147;47.520;18.920;2023-06-14T01:14:32;98173.06;;;19.07;49.25
42519;BME280;28147;47.520;18.920;2023-06-14T01:16:59;98180.78;;;19.14;49.26
42519;BME280;28147;47.520;18.920;2023-06-14T01:19:25;98170.47;;;19.16;49.16
42519;BME280;28147;47.520;18.920;2023-06-14T01:21:55;98176.47;;;19.13;49.39
42519;BME280;28147;47.520;18.920;2023-06-14T01:24:20;98177.69;;;19.20;49.33
42519;BME280;28147;47.520;18.920;2023-06-14T01:26:53;98178.63;;;19.30;48.71
42519;BME280;28147;47.520;18.920;2023-06-14T01:29:22;98176.28;;;19.09;49.69
42519;BME280;28147;47.520;18.920;2023-06-14T01:31:49;98179.91;;;19.18;49.60
42519;BME280;28147;47.520;18.920;2023-06-14T01:34:15;98184.06;;;19.11;50.12
42519;BME280;28147;47.520;18.920;2023-06-14T01:36:43;98157.00;;;19.16;49.65
42519;BME280;28147;47.520;18.920;2023-06-14T01:39:12;98181.00;;;19.17;49.62
42519;BME280;28147;47.520;18.920;2023-06-14T01:41:39;98183.44;;;19.33;49.32
42519;BME280;28147;47.520;18.920;2023-06-14T01:44:05;98178.66;;;19.11;49.84
42519;BME280;28147;47.520;18.920;2023-06-14T01:46:31;98187.47;;;19.16;50.05
42519;BME280;28147;47.520;18.920;2023-06-14T01:48:56;98179.53;;;19.25;49.64
42519;BME280;28147;47.520;18.920;2023-06-14T01:51:22;98185.50;;;19.22;49.77
42519;BME280;28147;47.520;18.920;2023-06-14T01:53:47;98192.66;;;18.94;50.30
42519;BME280;28147;47.520;18.920;2023-06-14T01:56:13;98196.19;;;18.94;50.70
42519;BME280;28147;47.520;18.920;2023-06-14T01:58:39;98187.44;;;19.35;49.59
42519;BME280;28147;47.520;18.920;2023-06-14T02:01:05;98197.09;;;19.23;50.20
42519;BME280;28147;47.520;18.920;2023-06-14T02:03:32;98197.00;;;18.95;51.12
42519;BME280;28147;47.520;18.920;2023-06-14T02:05:58;98195.06;;;19.14;50.56
42519;BME280;28147;47.520;18.920;2023-06-14T02:08:23;98199.59;;;19.19;50.71
42519;BME280;28147;47.520;18.920;2023-06-14T02:10:49;98189.22;;;19.26;50.20
42519;BME280;28147;47.520;18.920;2023-06-14T02:13:14;98198.00;;;19.18;50.56
42519;BME280;28147;47.520;18.920;2023-06-14T02:15:40;98202.41;;;19.28;50.56
42519;BME280;28147;47.520;18.920;2023-06-14T02:18:09;98209.03;;;19.03;50.97
42519;BME280;28147;47.520;18.920;2023-06-14T02:20:35;98203.19;;;18.95;51.34
42519;BME280;28147;47.520;18.920;2023-06-14T02:23:01;98210.63;;;19.04;51.03
42519;BME280;28147;47.520;18.920;2023-06-14T02:25:26;98200.84;;;19.08;50.93
42519;BME280;28147;47.520;18.920;2023-06-14T02:27:53;98196.22;;;18.76;51.53
42519;BME280;28147;47.520;18.920;2023-06-14T02:30:20;98201.13;;;18.50;52.54
42519;BME280;28147;47.520;18.920;2023-06-14T02:32:46;98198.03;;;18.80;51.90
42519;BME280;28147;47.520;18.920;2023-06-14T02:35:13;98201.06;;;18.74;52.20
42519;BME280;28147;47.520;18.920;2023-06-14T02:37:39;98203.66;;;18.60;52.86
42519;BME280;28147;47.520;18.920;2023-06-14T02:40:05;98199.94;;;18.56;52.76
42519;BME280;28147;47.520;18.920;2023-06-14T02:42:31;98195.84;;;18.39;53.11
42519;BME280;28147;47.520;18.920;2023-06-14T02:44:56;98196.53;;;18.69;52.73
42519;BME280;28147;47.520;18.920;2023-06-14T02:47:22;98200.03;;;18.69;52.55
42519;BME280;28147;47.520;18.920;2023-06-14T02:49:47;98194.13;;;18.86;52.14
42519;BME280;28147;47.520;18.920;2023-06-14T02:52:13;98193.38;;;18.62;52.78
42519;BME280;28147;47.520;18.920;2023-06-14T02:54:38;98183.53;;;18.76;52.35
42519;BME280;28147;47.520;18.920;2023-06-14T02:57:04;98192.66;;;18.56;52.90
42519;BME280;28147;47.520;18.920;2023-06-14T02:59:29;98193.47;;;18.57;53.03
42519;BME280;28147;47.520;18.920;2023-06-14T03:01:54;98195.13;;;18.34;53.71
42519;BME280;28147;47.520;18.920;2023-06-14T03:04:20;98190.22;;;18.36;53.60
42519;BME280;28147;47.520;18.920;2023-06-14T03:06:45;98189.53;;;18.49;53.50
42519;BME280;28147;47.520;18.920;2023-06-14T03:09:15;98193.91;;;18.45;53.62
42519;BME280;28147;47.520;18.920;2023-06-14T03:11:41;98199.56;;;18.62;53.17
42519;BME280;28147;47.520;18.920;2023-06-14T03:14:06;98187.69;;;18.63;53.19
42519;BME280;28147;47.520;18.920;2023-06-14T03:16:33;98198.22;;;18.65;53.38
42519;BME280;28147;47.520;18.920;2023-06-14T03:18:59;98196.16;;;18.57;53.81
42519;BME280;28147;47.520;18.920;2023-06-14T03:21:24;98193.38;;;18.43;54.16
42519;BME280;28147;47.520;18.920;2023-06-14T03:23:51;98193.47;;;18.57;53.98
42519;BME280;28147;47.520;18.920;2023-06-14T03:26:18;98194.31;;;18.52;53.68
42519;BME280;28147;47.520;18.920;2023-06-14T03:28:44;98196.44;;;18.55;53.89
42519;BME280;28147;47.520;18.920;2023-06-14T03:31:11;98203.81;;;18.68;53.68
42519;BME280;28147;47.520;18.920;2023-06-14T03:33:36;98197.63;;;18.49;54.22
42519;BME280;28147;47.520;18.920;2023-06-14T03:36:02;98202.41;;;18.52;54.50
42519;BME280;28147;47.520;18.920;2023-06-14T03:38:28;98204.66;;;18.88;53.40
42519;BME280;28147;47.520;18.920;2023-06-14T03:40:53;98208.06;;;18.75;53.88
42519;BME280;28147;47.520;18.920;2023-06-14T03:43:19;98205.31;;;18.80;54.18
42519;BME280;28147;47.520;18.920;2023-06-14T03:45:44;98209.44;;;19.10;53.27
42519;BME280;28147;47.520;18.920;2023-06-14T03:48:10;98205.28;;;19.17;53.00
42519;BME280;28147;47.520;18.920;2023-06-14T03:50:35;98210.84;;;19.07;53.14
42519;BME280;28147;47.520;18.920;2023-06-14T03:53:03;98217.69;;;19.18;52.95
42519;BME280;28147;47.520;18.920;2023-06-14T03:55:29;98201.78;;;19.17;52.85
42519;BME280;28147;47.520;18.920;2023-06-14T03:57:56;98207.75;;;19.47;52.60
42519;BME280;28147;47.520;18.920;2023-06-14T04:00:22;98207.22;;;19.31;52.87
42519;BME280;28147;47.520;18.920;2023-06-14T04:02:48;98213.88;;;19.52;52.84
42519;BME280;28147;47.520;18.920;2023-06-14T04:05:14;98212.41;;;19.27;53.24
42519;BME280;28147;47.520;18.920;2023-06-14T04:07:42;98211.47;;;19.51;52.80
42519;BME280;28147;47.520;18.920;2023-06-14T04:10:11;98210.38;;;19.52;53.04
42519;BME280;28147;47.520;18.920;2023-06-14T04:12:37;98210.81;;;19.59;53.14
42519;BME280;28147;47.520;18.920;2023-06-14T04:15:02;98215.44;;;19.72;52.73
42519;BME280;28147;47.520;18.920;2023-06-14T04:17:31;98221.72;;;20.00;51.91
42519;BME280;28147;47.520;18.920;2023-06-14T04:20:01;98223.09;;;20.11;51.64
42519;BME280;28147;47.520;18.920;2023-06-14T04:22:27;98221.59;;;20.05;52.09
42519;BME280;28147;47.520;18.920;2023-06-14T04:24:54;98224.69;;;19.99;52.60
42519;BME280;28147;47.520;18.920;2023-06-14T04:27:23;98226.72;;;20.34;51.50
42519;BME280;28147;47.520;18.920;2023-06-14T04:29:55;98221.38;;;20.71;50.05
42519;BME280;28147;47.520;18.920;2023-06-14T04:32:27;98224.09;;;21.07;48.50
42519;BME280;28147;47.520;18.920;2023-06-14T04:34:54;98231.69;;;21.41;48.60
42519;BME280;28147;47.520;18.920;2023-06-14T04:37:21;98232.47;;;21.64;48.39
42519;BME280;28147;47.520;18.920;2023-06-14T04:39:47;98228.94;;;21.86;48.10
42519;BME280;28147;47.520;18.920;2023-06-14T04:42:13;98226.91;;;22.00;48.12
42519;BME280;28147;47.520;18.920;2023-06-14T04:44:40;98235.84;;;22.41;47.01
42519;BME280;28147;47.520;18.920;2023-06-14T04:47:06;98234.63;;;22.55;46.95
42519;BME280;28147;47.520;18.920;2023-06-14T04:49:32;98240.03;;;22.55;46.15
42519;BME280;28147;47.520;18.920;2023-06-14T04:51:59;98239.16;;;22.95;45.84
42519;BME280;28147;47.520;18.920;2023-06-14T04:54:26;98232.75;;;22.91;46.10
42519;BME280;28147;47.520;18.920;2023-06-14T04:56:52;98232.47;;;23.01;46.06
42519;BME280;28147;47.520;18.920;2023-06-14T04:59:20;98232.59;;;23.22;45.01
42519;BME280;28147;47.520;18.920;2023-06-14T05:01:48;98237.25;;;23.13;44.94
42519;BME280;28147;47.520;18.920;2023-06-14T05:04:15;98245.06;;;22.88;44.64
42519;BME280;28147;47.520;18.920;2023-06-14T05:06:41;98234.63;;;21.53;46.42
42519;BME280;28147;47.520;18.920;2023-06-14T05:09:07;98242.34;;;21.24;47.79
42519;BME280;28147;47.520;18.920;2023-06-14T05:11:32;98242.44;;;21.55;47.32
42519;BME280;28147;47.520;18.920;2023-06-14T05:13:58;98240.66;;;21.50;47.89
42519;BME280;28147;47.520;18.920;2023-06-14T05:16:23;98240.50;;;22.09;45.43
42519;BME280;28147;47.520;18.920;2023-06-14T05:18:50;98238.28;;;22.11;45.06
42519;BME280;28147;47.520;18.920;2023-06-14T05:21:17;98244.63;;;21.44;47.78
42519;BME280;28147;47.520;18.920;2023-06-14T05:23:44;98248.66;;;21.55;47.33
42519;BME280;28147;47.520;18.920;2023-06-14T05:26:10;98235.34;;;21.99;46.61
42519;BME280;28147;47.520;18.920;2023-06-14T05:28:35;98239.06;;;22.11;47.02
42519;BME280;28147;47.520;18.920;2023-06-14T05:31:01;98245.31;;;21.81;47.31
42519;BME280;28147;47.520;18.920;2023-06-14T05:33:27;98252.38;;;21.37;48.36
42519;BME280;28147;47.520;18.920;2023-06-14T05:35:52;98240.16;;;22.02;47.47
42519;BME280;28147;47.520;18.920;2023-06-14T05:38:18;98245.94;;;22.49;45.94
42519;BME280;28147;47.520;18.920;2023-06-14T05:40:43;98249.88;;;21.72;47.42
42519;BME280;28147;47.520;18.920;2023-06-14T05:43:09;98258.00;;;22.34;46.62
42519;BME280;28147;47.520;18.920;2023-06-14T05:45:34;98250.91;;;22.73;45.51
42519;BME280;28147;47.520;18.920;2023-06-14T05:47:59;98248.41;;;21.66;47.88
42519;BME280;28147;47.520;18.920;2023-06-14T05:50:25;98258.41;;;22.58;46.33
42519;BME280;28147;47.520;18.920;2023-06-14T05:52:50;98252.28;;;23.27;45.15
42519;BME280;28147;47.520;18.920;2023-06-14T05:55:17;98253.00;;;23.89;44.29
42519;BME280;28147;47.520;18.920;2023-06-14T05:57:42;98258.97;;;23.21;44.14
42519;BME280;28147;47.520;18.920;2023-06-14T06:00:08;98263.41;;;23.87;43.55
42519;BME280;28147;47.520;18.920;2023-06-14T06:02:43;98243.34;;;22.04;45.86
42519;BME280;28147;47.520;18.920;2023-06-14T06:05:09;98249.06;;;22.25;46.87
42519;BME280;28147;47.520;18.920;2023-06-14T06:07:36;98260.78;;;21.58;49.21
42519;BME280;28147;47.520;18.920;2023-06-14T06:10:02;98255.00;;;22.36;47.51
42519;BME280;28147;47.520;18.920;2023-06-14T06:12:27;98256.31;;;21.53;48.65
42519;BME280;28147;47.520;18.920;2023-06-14T06:14:52;98255.50;;;21.75;49.23
42519;BME280;28147;47.520;18.920;2023-06-14T06:17:18;98261.69;;;22.38;48.12
42519;BME280;28147;47.520;18.920;2023-06-14T06:19:43;98265.09;;;22.52;45.67
42519;BME280;28147;47.520;18.920;2023-06-14T06:22:09;98258.63;;;22.31;47.85
42519;BME280;28147;47.520;18.920;2023-06-14T06:24:34;98267.78;;;21.59;49.18
42519;BME280;28147;47.520;18.920;2023-06-14T06:27:00;98259.22;;;21.88;47.66
42519;BME280;28147;47.520;18.920;2023-06-14T06:29:25;98260.44;;;22.44;46.05
42519;BME280;28147;47.520;18.920;2023-06-14T06:31:51;98262.03;;;22.05;46.80
42519;BME280;28147;47.520;18.920;2023-06-14T06:34:16;98266.03;;;21.85;47.41
42519;BME280;28147;47.520;18.920;2023-06-14T06:36:42;98267.94;;;23.39;44.56
42519;BME280;28147;47.520;18.920;2023-06-14T06:39:07;98257.75;;;24.98;42.80
42519;BME280;28147;47.520;18.920;2023-06-14T06:41:37;98259.94;;;24.54;41.67
42519;BME280;28147;47.520;18.920;2023-06-14T06:44:05;98270.97;;;23.29;44.18
42519;BME280;28147;47.520;18.920;2023-06-14T06:46:31;98267.13;;;23.39;44.62
42519;BME280;28147;47.520;18.920;2023-06-14T06:48:57;98274.16;;;22.96;45.61
42519;BME280;28147;47.520;18.920;2023-06-14T06:51:22;98269.66;;;23.61;44.14
42519;BME280;28147;47.520;18.920;2023-06-14T06:53:52;98272.53;;;23.65;43.01
42519;BME280;28147;47.520;18.920;2023-06-14T06:56:18;98266.31;;;23.73;42.68
42519;BME280;28147;47.520;18.920;2023-06-14T06:58:44;98271.03;;;22.63;45.68
42519;BME280;28147;47.520;18.920;2023-06-14T07:01:10;98267.84;;;21.90;46.43
42519;BME280;28147;47.520;18.920;2023-06-14T07:03:36;98279.97;;;21.70;47.38
42519;BME280;28147;47.520;18.920;2023-06-14T07:06:02;98276.47;;;21.70;48.14
42519;BME280;28147;47.520;18.920;2023-06-14T07:08:28;98286.69;;;22.75;46.34
42519;BME280;28147;47.520;18.920;2023-06-14T07:10:53;98281.19;;;23.32;45.24
42519;BME280;28147;47.520;18.920;2023-06-14T07:13:18;98285.69;;;23.19;45.10
42519;BME280;28147;47.520;18.920;2023-06-14T07:15:44;98271.22;;;22.84;45.32
42519;BME280;28147;47.520;18.920;2023-06-14T07:18:10;98278.13;;;22.33;46.32
42519;BME280;28147;47.520;18.920;2023-06-14T07:20:35;98277.66;;;23.75;43.30
42519;BME280;28147;47.520;18.920;2023-06-14T07:23:04;98277.50;;;23.71;43.46
42519;BME280;28147;47.520;18.920;2023-06-14T07:25:31;98272.84;;;24.36;41.07
42519;BME280;28147;47.520;18.920;2023-06-14T07:27:56;98264.81;;;24.69;41.28
42519;BME280;28147;47.520;18.920;2023-06-14T07:30:22;98270.09;;;24.95;41.52
42519;BME280;28147;47.520;18.920;2023-06-14T07:32:51;98272.66;;;25.21;41.07
42519;BME280;28147;47.520;18.920;2023-06-14T07:35:17;98274.91;;;25.40;40.01
42519;BME280;28147;47.520;18.920;2023-06-14T07:37:43;98279.28;;;24.23;41.74
42519;BME280;28147;47.520;18.920;2023-06-14T07:40:08;98280.22;;;23.54;43.80
42519;BME280;28147;47.520;18.920;2023-06-14T07:42:35;98290.94;;;23.33;44.14
42519;BME280;28147;47.520;18.920;2023-06-14T07:45:02;98299.25;;;22.53;45.13
42519;BME280;28147;47.520;18.920;2023-06-14T07:47:28;98300.84;;;23.20;44.33
42519;BME280;28147;47.520;18.920;2023-06-14T07:49:53;98305.31;;;23.25;43.10
42519;BME280;28147;47.520;18.920;2023-06-14T07:52:18;98304.03;;;23.57;41.83
42519;BME280;28147;47.520;18.920;2023-06-14T07:54:44;98301.16;;;23.79;42.46
42519;BME280;28147;47.520;18.920;2023-06-14T07:57:09;98299.09;;;23.16;42.58
42519;BME280;28147;47.520;18.920;2023-06-14T07:59:35;98297.00;;;23.82;41.78
42519;BME280;28147;47.520;18.920;2023-06-14T08:02:01;98295.72;;;23.62;42.38
42519;BME280;28147;47.520;18.920;2023-06-14T08:04:26;98296.38;;;24.32;40.68
42519;BME280;28147;47.520;18.920;2023-06-14T08:06:51;98292.00;;;24.78;40.01
42519;BME280;28147;47.520;18.920;2023-06-14T08:09:17;98300.56;;;25.39;39.18
42519;BME280;28147;47.520;18.920;2023-06-14T08:11:42;98297.06;;;24.88;39.40
42519;BME280;28147;47.520;18.920;2023-06-14T08:14:08;98295.41;;;24.37;40.61
42519;BME280;28147;47.520;18.920;2023-06-14T08:16:33;98302.78;;;24.27;38.73
42519;BME280;28147;47.520;18.920;2023-06-14T08:18:59;98285.34;;;25.92;38.61
42519;BME280;28147;47.520;18.920;2023-06-14T08:21:24;98293.41;;;25.68;40.08
42519;BME280;28147;47.520;18.920;2023-06-14T08:23:52;98300.03;;;24.74;39.87
42519;BME280;28147;47.520;18.920;2023-06-14T08:26:18;98299.25;;;23.45;43.02
42519;BME280;28147;47.520;18.920;2023-06-14T08:28:43;98309.78;;;23.47;42.06
42519;BME280;28147;47.520;18.920;2023-06-14T08:31:09;98312.69;;;23.42;42.07
42519;BME280;28147;47.520;18.920;2023-06-14T08:33:34;98308.63;;;24.00;41.49
42519;BME280;28147;47.520;18.920;2023-06-14T08:35:59;98318.72;;;23.13;42.27
42519;BME280;28147;47.520;18.920;2023-06-14T08:38:25;98318.97;;;22.85;42.88
42519;BME280;28147;47.520;18.920;2023-06-14T08:40:52;98313.16;;;23.44;42.66
42519;BME280;28147;47.520;18.920;2023-06-14T08:43:22;98324.50;;;23.54;42.45
42519;BME280;28147;47.520;18.920;2023-06-14T08:45:48;98334.09;;;23.61;42.95
42519;BME280;28147;47.520;18.920;2023-06-14T08:48:19;98337.41;;;23.14;43.11
42519;BME280;28147;47.520;18.920;2023-06-14T08:50:47;98339.81;;;23.07;43.13
42519;BME280;28147;47.520;18.920;2023-06-14T08:53:14;98343.97;;;23.04;43.07
42519;BME280;28147;47.520;18.920;2023-06-14T08:55:45;98340.47;;;22.73;44.39
42519;BME280;28147;47.520;18.920;2023-06-14T08:58:10;98349.38;;;22.96;44.47
42519;BME280;28147;47.520;18.920;2023-06-14T09:00:39;98345.50;;;22.88;44.66
42519;BME280;28147;47.520;18.920;2023-06-14T09:03:07;98354.94;;;22.99;45.81
42519;BME280;28147;47.520;18.920;2023-06-14T09:05:38;98357.81;;;22.94;44.67
42519;BME280;28147;47.520;18.920;2023-06-14T09:08:04;98353.84;;;22.61;45.53
42519;BME280;28147;47.520;18.920;2023-06-14T09:10:31;98347.81;;;23.21;44.95
42519;BME280;28147;47.520;18.920;2023-06-14T09:13:00;98343.25;;;22.90;44.87
42519;BME280;28147;47.520;18.920;2023-06-14T09:15:26;98343.63;;;22.97;45.92
42519;BME280;28147;47.520;18.920;2023-06-14T09:17:51;98355.53;;;22.88;45.59
42519;BME280;28147;47.520;18.920;2023-06-14T09:20:18;98357.75;;;23.34;44.33
42519;BME280;28147;47.520;18.920;2023-06-14T09:22:44;98353.06;;;24.21;43.71
42519;BME280;28147;47.520;18.920;2023-06-14T09:25:09;98353.03;;;24.77;42.54
42519;BME280;28147;47.520;18.920;2023-06-14T09:27:35;98352.41;;;24.24;43.94
42519;BME280;28147;47.520;18.920;2023-06-14T09:30:05;98349.66;;;24.80;41.92
42519;BME280;28147;47.520;18.920;2023-06-14T09:32:38;98346.78;;;25.36;42.66
42519;BME280;28147;47.520;18.920;2023-06-14T09:35:08;98342.56;;;24.88;41.34
42519;BME280;28147;47.520;18.920;2023-06-14T09:37:34;98350.19;;;24.65;42.72
42519;BME280;28147;47.520;18.920;2023-06-14T09:40:01;98346.00;;;25.06;39.75
42519;BME280;28147;47.520;18.920;2023-06-14T09:42:28;98338.25;;;26.25;38.24
42519;BME280;28147;47.520;18.920;2023-06-14T09:44:56;98334.63;;;25.87;38.68
42519;BME280;28147;47.520;18.920;2023-06-14T09:47:23;98332.00;;;25.37;39.81
42519;BME280;28147;47.520;18.920;2023-06-14T09:49:50;98334.63;;;25.87;40.70
42519;BME280;28147;47.520;18.920;2023-06-14T09:52:20;98326.41;;;26.90;39.49
42519;BME280;28147;47.520;18.920;2023-06-14T09:54:46;98321.72;;;27.15;38.71
42519;BME280;28147;47.520;18.920;2023-06-14T09:57:14;98328.81;;;27.85;36.41
42519;BME280;28147;47.520;18.920;2023-06-14T09:59:42;98320.22;;;28.30;35.89
42519;BME280;28147;47.520;18.920;2023-06-14T10:02:25;98327.34;;;27.35;35.37
42519;BME280;28147;47.520;18.920;2023-06-14T10:05:11;98329.47;;;28.10;33.57
42519;BME280;28147;47.520;18.920;2023-06-14T10:07:53;98321.28;;;27.13;31.38
42519;BME280;28147;47.520;18.920;2023-06-14T10:10:19;98330.41;;;26.56;31.59
42519;BME280;28147;47.520;18.920;2023-06-14T10:12:44;98321.72;;;27.56;33.00
42519;BME280;28147;47.520;18.920;2023-06-14T10:15:17;98316.31;;;27.31;32.18
42519;BME280;28147;47.520;18.920;2023-06-14T10:17:56;98322.31;;;26.72;32.75
42519;BME280;28147;47.520;18.920;2023-06-14T10:20:32;98315.50;;;27.99;32.36
42519;BME280;28147;47.520;18.920;2023-06-14T10:23:07;98307.47;;;28.06;33.44
42519;BME280;28147;47.520;18.920;2023-06-14T10:25:35;98320.75;;;27.76;34.37
42519;BME280;28147;47.520;18.920;2023-06-14T10:28:21;98313.50;;;28.59;30.59
42519;BME280;28147;47.520;18.920;2023-06-14T10:33:33;98304.94;;;28.29;29.75
42519;BME280;28147;47.520;18.920;2023-06-14T10:36:09;98312.75;;;28.43;29.67
42519;BME280;28147;47.520;18.920;2023-06-14T10:38:37;98313.69;;;28.35;28.52
42519;BME280;28147;47.520;18.920;2023-06-14T10:41:04;98309.41;;;27.90;29.18
42519;BME280;28147;47.520;18.920;2023-06-14T10:43:29;98309.34;;;28.18;32.03
42519;BME280;28147;47.520;18.920;2023-06-14T10:46:17;98306.28;;;29.18;30.00
42519;BME280;28147;47.520;18.920;2023-06-14T10:48:44;98313.47;;;27.96;30.49
42519;BME280;28147;47.520;18.920;2023-06-14T10:51:19;98306.38;;;28.55;30.42
42519;BME280;28147;47.520;18.920;2023-06-14T10:53:48;98301.50;;;28.32;30.59
42519;BME280;28147;47.520;18.920;2023-06-14T10:56:30;98297.94;;;28.00;30.06
42519;BME280;28147;47.520;18.920;2023-06-14T10:58:59;98293.47;;;28.40;29.70
42519;BME280;28147;47.520;18.920;2023-06-14T11:01:44;98299.94;;;27.87;32.02
42519;BME280;28147;47.520;18.920;2023-06-14T11:04:17;98300.38;;;27.33;33.72
42519;BME280;28147;47.520;18.920;2023-06-14T11:11:45;98292.00;;;27.54;34.58
42519;BME280;28147;47.520;18.920;2023-06-14T11:14:11;98297.13;;;27.03;34.30
42519;BME280;28147;47.520;18.920;2023-06-14T11:16:37;98290.19;;;26.81;33.93
42519;BME280;28147;47.520;18.920;2023-06-14T11:19:02;98300.72;;;27.60;32.98
42519;BME280;28147;47.520;18.920;2023-06-14T11:21:32;98299.00;;;27.27;32.72
42519;BME280;28147;47.520;18.920;2023-06-14T11:23:58;98295.94;;;27.57;33.68
42519;BME280;28147;47.520;18.920;2023-06-14T11:26:28;98300.81;;;27.92;33.22
42519;BME280;28147;47.520;18.920;2023-06-14T11:29:00;98300.16;;;28.74;32.51
42519;BME280;28147;47.520;18.920;2023-06-14T11:31:27;98304.34;;;27.64;31.79
42519;BME280;28147;47.520;18.920;2023-06-14T11:33:56;98303.03;;;27.58;30.76
42519;BME280;28147;47.520;18.920;2023-06-14T11:36:23;98301.94;;;27.47;30.80
42519;BME280;28147;47.520;18.920;2023-06-14T11:39:06;98301.75;;;28.27;31.46
42519;BME280;28147;47.520;18.920;2023-06-14T11:41:34;98297.56;;;27.86;31.97
42519;BME280;28147;47.520;18.920;2023-06-14T11:44:01;98291.09;;;27.78;31.38
42519;BME280;28147;47.520;18.920;2023-06-14T11:46:27;98298.75;;;26.80;30.67
42519;BME280;28147;47.520;18.920;2023-06-14T11:48:52;98299.09;;;27.43;31.51
42519;BME280;28147;47.520;18.920;2023-06-14T11:51:19;98294.47;;;27.87;32.42
42519;BME280;28147;47.520;18.920;2023-06-14T11:53:44;98288.19;;;27.87;33.23
42519;BME280;28147;47.520;18.920;2023-06-14T11:56:10;98290.59;;;27.32;34.54
42519;BME280;28147;47.520;18.920;2023-06-14T11:58:40;98301.72;;;27.68;35.08
42519;BME280;28147;47.520;18.920;2023-06-14T12:01:07;98299.50;;;27.17;34.26
42519;BME280;28147;47.520;18.920;2023-06-14T12:03:32;98301.13;;;28.02;33.67
42519;BME280;28147;47.520;18.920;2023-06-14T12:06:03;98305.94;;;27.77;33.46
42519;BME280;28147;47.520;18.920;2023-06-14T12:08:35;98302.94;;;27.82;32.49
42519;BME280;28147;47.520;18.920;2023-06-14T12:11:14;98297.91;;;27.16;33.25
42519;BME280;28147;47.520;18.920;2023-06-14T12:13:41;98295.78;;;26.85;33.85
42519;BME280;28147;47.520;18.920;2023-06-14T12:16:11;98291.47;;;27.36;33.65
42519;BME280;28147;47.520;18.920;2023-06-14T12:18:38;98300.03;;;27.91;34.24
42519;BME280;28147;47.520;18.920;2023-06-14T12:21:05;98304.75;;;28.22;31.99
42519;BME280;28147;47.520;18.920;2023-06-14T12:23:47;98292.22;;;27.49;33.99
42519;BME280;28147;47.520;18.920;2023-06-14T12:26:14;98302.66;;;27.31;33.90
42519;BME280;28147;47.520;18.920;2023-06-14T12:28:40;98301.31;;;27.25;32.48
42519;BME280;28147;47.520;18.920;2023-06-14T12:31:07;98302.34;;;26.10;35.25
42519;BME280;28147;47.520;18.920;2023-06-14T12:33:32;98311.38;;;26.72;33.75
42519;BME280;28147;47.520;18.920;2023-06-14T12:35:58;98304.34;;;27.36;32.94
42519;BME280;28147;47.520;18.920;2023-06-14T12:38:24;98316.88;;;27.77;32.48
42519;BME280;28147;47.520;18.920;2023-06-14T12:40:49;98309.66;;;27.73;32.03
42519;BME280;28147;47.520;18.920;2023-06-14T12:43:15;98303.53;;;27.76;31.80
42519;BME280;28147;47.520;18.920;2023-06-14T12:45:40;98304.59;;;28.15;31.26
42519;BME280;28147;47.520;18.920;2023-06-14T12:48:06;98305.78;;;28.02;32.09
42519;BME280;28147;47.520;18.920;2023-06-14T12:50:33;98318.03;;;27.64;31.01
42519;BME280;28147;47.520;18.920;2023-06-14T12:52:59;98313.03;;;27.26;31.19
42519;BME280;28147;47.520;18.920;2023-06-14T12:55:24;98309.91;;;27.80;30.83
42519;BME280;28147;47.520;18.920;2023-06-14T12:57:49;98304.50;;;27.55;30.17
42519;BME280;28147;47.520;18.920;2023-06-14T13:00:17;98305.13;;;27.77;31.70
42519;BME280;28147;47.520;18.920;2023-06-14T13:02:43;98300.63;;;27.28;31.46